This is the latest recevied weather packets stored in our database for station/object IK1AMC-3. If no packets are shown the sender has not sent any weather packets the latest 10 day(s).
| Time | Temp. | Humidity | Pressure | Rain* | Wind** | Luminosity | Snow |
|---|---|---|---|---|---|---|---|
| 1778059053 | 18.89° C | 66% | 1007.6 hPa | - | - | - | - |
| 1778057852 | 18.33° C | 67% | 1007.5 hPa | - | - | - | - |
| 1778056650 | 18.89° C | 67% | 1007.4 hPa | - | - | - | - |
| 1778055449 | 17.78° C | 71% | 1007.4 hPa | - | - | - | - |
| 1778054248 | 17.22° C | 72% | 1007.6 hPa | - | - | - | - |
| 1778053047 | 17.22° C | 73% | 1007.3 hPa | - | - | - | - |
| 1778051845 | 17.22° C | 76% | 1007.3 hPa | - | - | - | - |
| 1778050644 | 16.11° C | 81% | 1006.9 hPa | - | - | - | - |
| 1778049443 | 15.56° C | 85% | 1006.6 hPa | - | - | - | - |
| 1778048241 | 15° C | 86% | 1006.5 hPa | - | - | - | - |
| 1778047040 | 15° C | 86% | 1006.5 hPa | - | - | - | - |
| 1778045839 | 15° C | 86% | 1007.2 hPa | - | - | - | - |
| 1778044638 | 15° C | 84% | 1007.4 hPa | - | - | - | - |
| 1778043436 | 15° C | 86% | 1007.6 hPa | - | - | - | - |
| 1778042235 | 15° C | 86% | 1007.1 hPa | - | - | - | - |
| 1778041033 | 15° C | 85% | 1007.4 hPa | - | - | - | - |
| 1778039832 | 15° C | 80% | 1007.9 hPa | - | - | - | - |
| 1778038631 | 15.56° C | 81% | 1008.2 hPa | - | - | - | - |
| 1778037430 | 15.56° C | 81% | 1008.2 hPa | - | - | - | - |
| 1778036229 | 15.56° C | 79% | 1008 hPa | - | - | - | - |
| 1778035027 | 15.56° C | 80% | 1008 hPa | - | - | - | - |
| 1778033826 | 15.56° C | 79% | 1008.2 hPa | - | - | - | - |
| 1778032624 | 15.56° C | 81% | 1008.6 hPa | - | - | - | - |
| 1778031423 | 15.56° C | 82% | 1008.9 hPa | - | - | - | - |
| 1778030222 | 15.56° C | 80% | 1009.1 hPa | - | - | - | - |
* Rain since midnight (hover to see other rain measurements)
** Current wind speed in m/s (hover to see current wind gust speed)